Aeroporto :
LOGIN :

Iscrizione | Disclaimer

   EN    FR    IT 

 










Sommario :    VFR   VFR Marginale   IFR   IFR Intensivo   IFR Molto Intensivo
Visibilità : 
Base nubi : 
>= 8 km
>= 3000ft
5 / 8 km
1000 / 3000 ft
1500m / 5 km
500 / 1000 ft
800 / 1500m
200 / 500 ft
< 800m
< 200 ft
Simboli :   Temporali  Nebbia  Neve Forte  Precipitazioni Forti  Vento > 20 kt
SIGMETs :   Varie  Temporali  Ghiacco  Turbolenza  Onda orograficha  Ceneri Vulcaniche







- Altitudine del aeroporto : 53 ft
- Codice IATA : AGP


LEMG - Malaga

ULTIMO METAR :
  • 230430Z 30007KT CAVOK 13/10 Q1017 NOSIG

METARs OBSOLETI :
  • 230400Z 30007KT CAVOK 14/09 Q1018 NOSIG
  • 230330Z 30006KT CAVOK 15/10 Q1018 NOSIG
  • 230300Z 29008KT CAVOK 15/10 Q1018 NOSIG
  • 230230Z 30006KT CAVOK 16/11 Q1018 NOSIG
  • 230200Z 29008KT CAVOK 16/10 Q1018 NOSIG

TAF TAF LEMG
Valido dal 23 a 00 ore il 24 a 00 ore UTC


222300Z 2300/2324 VRB03KT 9999 SCT020 TX27/2312Z TN15/2306Z
BECMG 2301/2303 29006KT
BECMG 2310/2312 13007KT
BECMG 2319/2321 VRB03KT
Nessun NOTAM noto per questo aeroporto.



MetMap, La meteo Aeronautica in un colpo d'occhio ! - Copyright ORBIFLY Dicembre 2007 - Disclaimer

ORBIFLY MET'MAP TEAM :

Programmazione e sviluppo : Alexandra Zaïnal
Concezione e sviluppo : Baudouin d'Aumeries
Co-Programmazione e sviluppo : Marc-Olivier Méhu
Supporto tecnico e logistico : Manuel Goepfert
Aiuto per la traduzione : Arnaldo La Scala

Contatto : metmap@orbifly.com




FONTI E CREDITI :

   NOAA